sensor_id;sensor_type;location;lat;lon;timestamp;P1;durP1;ratioP1;P2;durP2;ratioP2
5543;SDS011;2795;47.652;13.128;2023-07-20T00:00:03;28.27;;;7.60;;
5543;SDS011;2795;47.652;13.128;2023-07-20T00:02:31;28.10;;;7.17;;
5543;SDS011;2795;47.652;13.128;2023-07-20T00:05:10;15.90;;;6.20;;
5543;SDS011;2795;47.652;13.128;2023-07-20T00:07:37;25.50;;;8.13;;
5543;SDS011;2795;47.652;13.128;2023-07-20T00:10:04;28.70;;;7.50;;
5543;SDS011;2795;47.652;13.128;2023-07-20T00:12:31;31.30;;;8.30;;
5543;SDS011;2795;47.652;13.128;2023-07-20T00:14:58;21.63;;;6.30;;
5543;SDS011;2795;47.652;13.128;2023-07-20T00:17:24;23.87;;;6.87;;
5543;SDS011;2795;47.652;13.128;2023-07-20T00:19:51;21.93;;;7.83;;
5543;SDS011;2795;47.652;13.128;2023-07-20T00:22:18;19.00;;;7.37;;
5543;SDS011;2795;47.652;13.128;2023-07-20T00:24:45;25.40;;;7.70;;
5543;SDS011;2795;47.652;13.128;2023-07-20T00:27:11;31.27;;;8.60;;
5543;SDS011;2795;47.652;13.128;2023-07-20T00:29:38;19.43;;;7.40;;
5543;SDS011;2795;47.652;13.128;2023-07-20T00:32:05;23.70;;;7.07;;
5543;SDS011;2795;47.652;13.128;2023-07-20T00:34:32;24.93;;;7.73;;
5543;SDS011;2795;47.652;13.128;2023-07-20T00:36:59;20.97;;;6.83;;
5543;SDS011;2795;47.652;13.128;2023-07-20T00:39:26;22.07;;;7.00;;
5543;SDS011;2795;47.652;13.128;2023-07-20T00:41:53;16.20;;;6.73;;
5543;SDS011;2795;47.652;13.128;2023-07-20T00:44:20;20.07;;;7.47;;
5543;SDS011;2795;47.652;13.128;2023-07-20T00:46:47;23.43;;;7.63;;
5543;SDS011;2795;47.652;13.128;2023-07-20T00:49:14;27.77;;;7.57;;
5543;SDS011;2795;47.652;13.128;2023-07-20T00:51:41;22.37;;;7.20;;
5543;SDS011;2795;47.652;13.128;2023-07-20T00:54:08;20.53;;;6.83;;
5543;SDS011;2795;47.652;13.128;2023-07-20T00:56:35;25.63;;;7.53;;
5543;SDS011;2795;47.652;13.128;2023-07-20T00:59:02;24.67;;;7.83;;
5543;SDS011;2795;47.652;13.128;2023-07-20T01:01:29;19.10;;;6.57;;
5543;SDS011;2795;47.652;13.128;2023-07-20T01:03:56;22.13;;;7.20;;
5543;SDS011;2795;47.652;13.128;2023-07-20T01:11:36;15.40;;;6.13;;
5543;SDS011;2795;47.652;13.128;2023-07-20T01:14:05;19.73;;;6.63;;
5543;SDS011;2795;47.652;13.128;2023-07-20T01:16:33;31.23;;;9.13;;
5543;SDS011;2795;47.652;13.128;2023-07-20T01:19:00;32.53;;;9.00;;
5543;SDS011;2795;47.652;13.128;2023-07-20T01:21:31;19.77;;;6.73;;
5543;SDS011;2795;47.652;13.128;2023-07-20T01:29:49;23.33;;;6.20;;
5543;SDS011;2795;47.652;13.128;2023-07-20T01:32:50;30.20;;;7.20;;
5543;SDS011;2795;47.652;13.128;2023-07-20T01:35:21;30.60;;;13.20;;
5543;SDS011;2795;47.652;13.128;2023-07-20T01:37:50;23.30;;;8.83;;
5543;SDS011;2795;47.652;13.128;2023-07-20T01:40:17;20.30;;;7.50;;
5543;SDS011;2795;47.652;13.128;2023-07-20T01:42:45;38.23;;;9.30;;
5543;SDS011;2795;47.652;13.128;2023-07-20T01:45:12;23.17;;;7.83;;
5543;SDS011;2795;47.652;13.128;2023-07-20T01:47:39;23.93;;;7.20;;
5543;SDS011;2795;47.652;13.128;2023-07-20T01:50:06;20.43;;;7.30;;
5543;SDS011;2795;47.652;13.128;2023-07-20T01:52:34;19.93;;;7.97;;
5543;SDS011;2795;47.652;13.128;2023-07-20T01:55:00;18.43;;;7.47;;
5543;SDS011;2795;47.652;13.128;2023-07-20T01:57:27;21.23;;;7.07;;
5543;SDS011;2795;47.652;13.128;2023-07-20T01:59:54;25.77;;;7.10;;
5543;SDS011;2795;47.652;13.128;2023-07-20T02:02:22;20.50;;;8.13;;
5543;SDS011;2795;47.652;13.128;2023-07-20T02:04:50;21.53;;;8.30;;
5543;SDS011;2795;47.652;13.128;2023-07-20T02:07:17;25.53;;;8.33;;
5543;SDS011;2795;47.652;13.128;2023-07-20T02:09:43;20.60;;;6.93;;
5543;SDS011;2795;47.652;13.128;2023-07-20T02:12:10;25.23;;;7.73;;
5543;SDS011;2795;47.652;13.128;2023-07-20T02:14:37;24.00;;;7.30;;
5543;SDS011;2795;47.652;13.128;2023-07-20T02:17:03;21.73;;;7.40;;
5543;SDS011;2795;47.652;13.128;2023-07-20T02:19:30;17.50;;;7.40;;
5543;SDS011;2795;47.652;13.128;2023-07-20T02:21:57;30.77;;;8.13;;
5543;SDS011;2795;47.652;13.128;2023-07-20T02:24:24;18.70;;;6.50;;
5543;SDS011;2795;47.652;13.128;2023-07-20T02:26:52;29.03;;;8.20;;
5543;SDS011;2795;47.652;13.128;2023-07-20T02:29:18;19.37;;;6.87;;
5543;SDS011;2795;47.652;13.128;2023-07-20T02:31:45;22.80;;;6.60;;
5543;SDS011;2795;47.652;13.128;2023-07-20T02:34:12;17.57;;;6.23;;
5543;SDS011;2795;47.652;13.128;2023-07-20T02:36:39;19.07;;;6.77;;
5543;SDS011;2795;47.652;13.128;2023-07-20T02:39:05;22.43;;;7.63;;
5543;SDS011;2795;47.652;13.128;2023-07-20T02:41:33;27.90;;;8.10;;
5543;SDS011;2795;47.652;13.128;2023-07-20T02:44:00;18.80;;;6.80;;
5543;SDS011;2795;47.652;13.128;2023-07-20T02:46:27;23.30;;;7.23;;
5543;SDS011;2795;47.652;13.128;2023-07-20T02:48:56;16.97;;;6.17;;
5543;SDS011;2795;47.652;13.128;2023-07-20T02:51:23;18.40;;;6.70;;
5543;SDS011;2795;47.652;13.128;2023-07-20T02:53:49;19.67;;;5.87;;
5543;SDS011;2795;47.652;13.128;2023-07-20T02:56:16;27.33;;;7.20;;
5543;SDS011;2795;47.652;13.128;2023-07-20T02:58:44;22.70;;;7.20;;
5543;SDS011;2795;47.652;13.128;2023-07-20T03:01:12;25.20;;;7.67;;
5543;SDS011;2795;47.652;13.128;2023-07-20T03:03:39;33.37;;;7.60;;
5543;SDS011;2795;47.652;13.128;2023-07-20T03:06:06;19.90;;;7.27;;
5543;SDS011;2795;47.652;13.128;2023-07-20T03:08:35;26.33;;;8.50;;
5543;SDS011;2795;47.652;13.128;2023-07-20T03:11:02;23.67;;;8.13;;
5543;SDS011;2795;47.652;13.128;2023-07-20T03:13:29;24.17;;;6.43;;
5543;SDS011;2795;47.652;13.128;2023-07-20T03:15:56;21.80;;;7.27;;
5543;SDS011;2795;47.652;13.128;2023-07-20T03:18:23;22.77;;;7.07;;
5543;SDS011;2795;47.652;13.128;2023-07-20T03:20:49;27.33;;;8.10;;
5543;SDS011;2795;47.652;13.128;2023-07-20T03:23:16;24.80;;;7.37;;
5543;SDS011;2795;47.652;13.128;2023-07-20T03:25:43;25.07;;;7.53;;
5543;SDS011;2795;47.652;13.128;2023-07-20T03:28:10;22.87;;;7.63;;
5543;SDS011;2795;47.652;13.128;2023-07-20T03:30:36;21.37;;;7.20;;
5543;SDS011;2795;47.652;13.128;2023-07-20T03:33:03;20.93;;;6.90;;
5543;SDS011;2795;47.652;13.128;2023-07-20T03:35:30;17.40;;;6.80;;
5543;SDS011;2795;47.652;13.128;2023-07-20T03:37:57;32.67;;;8.70;;
5543;SDS011;2795;47.652;13.128;2023-07-20T03:40:24;21.83;;;7.67;;
5543;SDS011;2795;47.652;13.128;2023-07-20T03:42:51;21.50;;;7.80;;
5543;SDS011;2795;47.652;13.128;2023-07-20T03:45:18;20.13;;;6.90;;
5543;SDS011;2795;47.652;13.128;2023-07-20T03:47:45;29.90;;;8.90;;
5543;SDS011;2795;47.652;13.128;2023-07-20T03:50:13;22.83;;;7.70;;
5543;SDS011;2795;47.652;13.128;2023-07-20T03:52:40;21.47;;;6.73;;
5543;SDS011;2795;47.652;13.128;2023-07-20T03:55:06;21.23;;;6.50;;
5543;SDS011;2795;47.652;13.128;2023-07-20T03:57:34;27.77;;;7.70;;
5543;SDS011;2795;47.652;13.128;2023-07-20T04:00:00;30.53;;;7.40;;
5543;SDS011;2795;47.652;13.128;2023-07-20T04:02:27;20.03;;;6.70;;
5543;SDS011;2795;47.652;13.128;2023-07-20T04:04:54;22.30;;;7.70;;
5543;SDS011;2795;47.652;13.128;2023-07-20T04:07:21;23.70;;;7.40;;
5543;SDS011;2795;47.652;13.128;2023-07-20T04:09:48;16.73;;;6.40;;
5543;SDS011;2795;47.652;13.128;2023-07-20T04:12:14;25.40;;;8.00;;
5543;SDS011;2795;47.652;13.128;2023-07-20T04:14:41;20.67;;;6.53;;
5543;SDS011;2795;47.652;13.128;2023-07-20T04:17:08;23.83;;;7.60;;
5543;SDS011;2795;47.652;13.128;2023-07-20T04:19:38;21.47;;;6.83;;
5543;SDS011;2795;47.652;13.128;2023-07-20T04:22:05;19.30;;;6.93;;
5543;SDS011;2795;47.652;13.128;2023-07-20T04:24:32;17.73;;;6.97;;
5543;SDS011;2795;47.652;13.128;2023-07-20T04:26:58;22.87;;;7.70;;
5543;SDS011;2795;47.652;13.128;2023-07-20T04:29:25;18.73;;;7.10;;
5543;SDS011;2795;47.652;13.128;2023-07-20T04:31:52;39.87;;;7.17;;
5543;SDS011;2795;47.652;13.128;2023-07-20T04:34:19;24.40;;;7.97;;
5543;SDS011;2795;47.652;13.128;2023-07-20T04:36:45;19.27;;;7.27;;
5543;SDS011;2795;47.652;13.128;2023-07-20T04:39:12;23.33;;;7.70;;
5543;SDS011;2795;47.652;13.128;2023-07-20T04:41:56;25.50;;;7.60;;
5543;SDS011;2795;47.652;13.128;2023-07-20T04:44:23;18.83;;;6.87;;
5543;SDS011;2795;47.652;13.128;2023-07-20T04:46:50;25.40;;;7.07;;
5543;SDS011;2795;47.652;13.128;2023-07-20T04:49:17;30.40;;;6.80;;
5543;SDS011;2795;47.652;13.128;2023-07-20T04:51:45;19.03;;;6.93;;
5543;SDS011;2795;47.652;13.128;2023-07-20T04:54:12;28.73;;;7.43;;
5543;SDS011;2795;47.652;13.128;2023-07-20T04:56:40;24.20;;;8.00;;
5543;SDS011;2795;47.652;13.128;2023-07-20T04:59:07;17.20;;;7.07;;
5543;SDS011;2795;47.652;13.128;2023-07-20T05:01:33;16.00;;;6.90;;
5543;SDS011;2795;47.652;13.128;2023-07-20T05:04:00;24.03;;;7.60;;
5543;SDS011;2795;47.652;13.128;2023-07-20T05:06:27;13.93;;;6.57;;
5543;SDS011;2795;47.652;13.128;2023-07-20T05:08:53;22.03;;;7.27;;
5543;SDS011;2795;47.652;13.128;2023-07-20T05:11:20;30.13;;;8.40;;
5543;SDS011;2795;47.652;13.128;2023-07-20T05:13:47;23.87;;;6.90;;
5543;SDS011;2795;47.652;13.128;2023-07-20T05:16:13;17.70;;;6.47;;
5543;SDS011;2795;47.652;13.128;2023-07-20T05:18:40;29.40;;;8.03;;
5543;SDS011;2795;47.652;13.128;2023-07-20T05:21:07;17.30;;;6.70;;
5543;SDS011;2795;47.652;13.128;2023-07-20T05:23:34;16.90;;;7.33;;
5543;SDS011;2795;47.652;13.128;2023-07-20T05:26:01;22.40;;;7.50;;
5543;SDS011;2795;47.652;13.128;2023-07-20T05:28:27;17.27;;;7.03;;
5543;SDS011;2795;47.652;13.128;2023-07-20T05:30:54;13.13;;;6.70;;
5543;SDS011;2795;47.652;13.128;2023-07-20T05:33:21;21.23;;;7.43;;
5543;SDS011;2795;47.652;13.128;2023-07-20T05:35:48;18.20;;;6.93;;
5543;SDS011;2795;47.652;13.128;2023-07-20T05:38:14;20.90;;;8.33;;
5543;SDS011;2795;47.652;13.128;2023-07-20T05:40:41;22.73;;;7.17;;
5543;SDS011;2795;47.652;13.128;2023-07-20T05:43:09;14.73;;;6.90;;
5543;SDS011;2795;47.652;13.128;2023-07-20T05:45:35;21.53;;;7.97;;
5543;SDS011;2795;47.652;13.128;2023-07-20T05:48:02;22.70;;;8.00;;
5543;SDS011;2795;47.652;13.128;2023-07-20T05:50:29;22.93;;;8.23;;
5543;SDS011;2795;47.652;13.128;2023-07-20T05:52:56;28.13;;;9.50;;
5543;SDS011;2795;47.652;13.128;2023-07-20T05:55:22;28.03;;;9.10;;
5543;SDS011;2795;47.652;13.128;2023-07-20T05:57:49;24.17;;;10.70;;
5543;SDS011;2795;47.652;13.128;2023-07-20T06:00:16;25.50;;;11.20;;
5543;SDS011;2795;47.652;13.128;2023-07-20T06:02:45;24.63;;;10.70;;
5543;SDS011;2795;47.652;13.128;2023-07-20T06:05:14;25.33;;;10.80;;
5543;SDS011;2795;47.652;13.128;2023-07-20T06:07:41;25.70;;;12.23;;
5543;SDS011;2795;47.652;13.128;2023-07-20T06:10:08;21.23;;;9.83;;
5543;SDS011;2795;47.652;13.128;2023-07-20T06:12:35;25.03;;;10.77;;
5543;SDS011;2795;47.652;13.128;2023-07-20T06:15:05;33.53;;;11.97;;
5543;SDS011;2795;47.652;13.128;2023-07-20T06:17:33;21.43;;;9.17;;
5543;SDS011;2795;47.652;13.128;2023-07-20T06:19:59;21.53;;;9.10;;
5543;SDS011;2795;47.652;13.128;2023-07-20T06:22:26;21.20;;;7.90;;
5543;SDS011;2795;47.652;13.128;2023-07-20T06:24:53;33.70;;;10.40;;
5543;SDS011;2795;47.652;13.128;2023-07-20T06:27:19;23.00;;;8.90;;
5543;SDS011;2795;47.652;13.128;2023-07-20T06:29:46;15.57;;;7.63;;
5543;SDS011;2795;47.652;13.128;2023-07-20T06:32:13;22.33;;;8.07;;
5543;SDS011;2795;47.652;13.128;2023-07-20T06:34:40;17.43;;;7.20;;
5543;SDS011;2795;47.652;13.128;2023-07-20T06:37:06;18.50;;;7.47;;
5543;SDS011;2795;47.652;13.128;2023-07-20T06:39:33;20.17;;;7.77;;
5543;SDS011;2795;47.652;13.128;2023-07-20T06:42:03;18.80;;;7.47;;
5543;SDS011;2795;47.652;13.128;2023-07-20T06:44:29;16.87;;;6.13;;
5543;SDS011;2795;47.652;13.128;2023-07-20T06:46:56;13.80;;;5.37;;
5543;SDS011;2795;47.652;13.128;2023-07-20T06:49:23;18.60;;;6.40;;
5543;SDS011;2795;47.652;13.128;2023-07-20T06:51:51;23.53;;;6.80;;
5543;SDS011;2795;47.652;13.128;2023-07-20T06:54:18;18.20;;;5.90;;
5543;SDS011;2795;47.652;13.128;2023-07-20T06:56:49;20.77;;;6.17;;
5543;SDS011;2795;47.652;13.128;2023-07-20T06:59:36;13.67;;;5.70;;
5543;SDS011;2795;47.652;13.128;2023-07-20T07:02:07;16.40;;;6.20;;
5543;SDS011;2795;47.652;13.128;2023-07-20T07:04:41;17.80;;;6.63;;
5543;SDS011;2795;47.652;13.128;2023-07-20T07:07:08;19.50;;;6.40;;
5543;SDS011;2795;47.652;13.128;2023-07-20T07:09:36;18.83;;;6.50;;
5543;SDS011;2795;47.652;13.128;2023-07-20T07:12:03;20.90;;;6.93;;
5543;SDS011;2795;47.652;13.128;2023-07-20T07:14:30;14.63;;;5.87;;
5543;SDS011;2795;47.652;13.128;2023-07-20T07:16:58;19.87;;;6.50;;
5543;SDS011;2795;47.652;13.128;2023-07-20T07:19:30;14.90;;;5.80;;
5543;SDS011;2795;47.652;13.128;2023-07-20T07:21:57;18.80;;;6.10;;
5543;SDS011;2795;47.652;13.128;2023-07-20T07:24:26;16.73;;;5.30;;
5543;SDS011;2795;47.652;13.128;2023-07-20T07:26:55;26.03;;;7.13;;
5543;SDS011;2795;47.652;13.128;2023-07-20T07:29:22;18.83;;;5.93;;
5543;SDS011;2795;47.652;13.128;2023-07-20T07:31:49;18.83;;;5.70;;
5543;SDS011;2795;47.652;13.128;2023-07-20T07:34:15;14.67;;;5.80;;
5543;SDS011;2795;47.652;13.128;2023-07-20T07:36:42;19.17;;;5.87;;
5543;SDS011;2795;47.652;13.128;2023-07-20T07:39:09;13.83;;;4.90;;
5543;SDS011;2795;47.652;13.128;2023-07-20T07:41:39;19.43;;;6.07;;
5543;SDS011;2795;47.652;13.128;2023-07-20T07:44:06;13.03;;;5.23;;
5543;SDS011;2795;47.652;13.128;2023-07-20T07:46:33;14.30;;;5.20;;
5543;SDS011;2795;47.652;13.128;2023-07-20T07:49:00;23.93;;;6.10;;
5543;SDS011;2795;47.652;13.128;2023-07-20T07:51:27;19.13;;;5.77;;
5543;SDS011;2795;47.652;13.128;2023-07-20T07:53:54;27.10;;;6.33;;
5543;SDS011;2795;47.652;13.128;2023-07-20T07:56:21;20.70;;;5.07;;
5543;SDS011;2795;47.652;13.128;2023-07-20T07:58:50;32.67;;;7.50;;
5543;SDS011;2795;47.652;13.128;2023-07-20T08:01:18;27.33;;;6.97;;
5543;SDS011;2795;47.652;13.128;2023-07-20T08:03:48;19.37;;;5.23;;
5543;SDS011;2795;47.652;13.128;2023-07-20T08:06:15;18.13;;;5.83;;
5543;SDS011;2795;47.652;13.128;2023-07-20T08:08:42;16.50;;;5.47;;
5543;SDS011;2795;47.652;13.128;2023-07-20T08:11:09;24.07;;;6.30;;
5543;SDS011;2795;47.652;13.128;2023-07-20T08:13:37;18.50;;;5.83;;
5543;SDS011;2795;47.652;13.128;2023-07-20T08:16:03;19.77;;;5.20;;
5543;SDS011;2795;47.652;13.128;2023-07-20T08:18:30;26.73;;;5.60;;
5543;SDS011;2795;47.652;13.128;2023-07-20T08:20:58;14.13;;;5.00;;
5543;SDS011;2795;47.652;13.128;2023-07-20T08:23:24;20.20;;;5.50;;
5543;SDS011;2795;47.652;13.128;2023-07-20T08:25:52;11.83;;;4.27;;
5543;SDS011;2795;47.652;13.128;2023-07-20T08:28:19;18.20;;;5.33;;
5543;SDS011;2795;47.652;13.128;2023-07-20T08:30:46;19.50;;;5.27;;
5543;SDS011;2795;47.652;13.128;2023-07-20T08:33:14;29.10;;;6.50;;
5543;SDS011;2795;47.652;13.128;2023-07-20T08:35:42;17.87;;;4.77;;
5543;SDS011;2795;47.652;13.128;2023-07-20T08:38:09;10.87;;;3.90;;
5543;SDS011;2795;47.652;13.128;2023-07-20T08:40:40;20.53;;;5.33;;
5543;SDS011;2795;47.652;13.128;2023-07-20T08:43:08;16.33;;;4.63;;
5543;SDS011;2795;47.652;13.128;2023-07-20T08:45:36;10.33;;;4.33;;
5543;SDS011;2795;47.652;13.128;2023-07-20T08:48:05;25.63;;;5.83;;
5543;SDS011;2795;47.652;13.128;2023-07-20T08:50:33;18.47;;;4.77;;
5543;SDS011;2795;47.652;13.128;2023-07-20T08:53:00;24.37;;;5.83;;
5543;SDS011;2795;47.652;13.128;2023-07-20T08:55:29;10.80;;;4.27;;
5543;SDS011;2795;47.652;13.128;2023-07-20T08:57:57;18.13;;;5.27;;
5543;SDS011;2795;47.652;13.128;2023-07-20T09:00:25;20.83;;;5.17;;
5543;SDS011;2795;47.652;13.128;2023-07-20T09:02:53;12.20;;;4.50;;
5543;SDS011;2795;47.652;13.128;2023-07-20T09:05:23;24.40;;;4.80;;
5543;SDS011;2795;47.652;13.128;2023-07-20T09:07:52;15.57;;;4.60;;
5543;SDS011;2795;47.652;13.128;2023-07-20T09:10:20;17.87;;;4.93;;
5543;SDS011;2795;47.652;13.128;2023-07-20T09:12:48;8.63;;;3.57;;
5543;SDS011;2795;47.652;13.128;2023-07-20T09:15:15;11.70;;;4.57;;
5543;SDS011;2795;47.652;13.128;2023-07-20T09:17:47;17.90;;;4.50;;
5543;SDS011;2795;47.652;13.128;2023-07-20T09:20:15;12.03;;;4.20;;
5543;SDS011;2795;47.652;13.128;2023-07-20T09:22:48;15.47;;;5.13;;
5543;SDS011;2795;47.652;13.128;2023-07-20T09:25:17;9.10;;;4.10;;
5543;SDS011;2795;47.652;13.128;2023-07-20T09:27:48;16.30;;;5.00;;
5543;SDS011;2795;47.652;13.128;2023-07-20T09:30:17;15.63;;;4.23;;
5543;SDS011;2795;47.652;13.128;2023-07-20T09:32:45;7.47;;;3.60;;
5543;SDS011;2795;47.652;13.128;2023-07-20T09:35:20;13.27;;;4.63;;
5543;SDS011;2795;47.652;13.128;2023-07-20T09:37:55;15.70;;;4.70;;
5543;SDS011;2795;47.652;13.128;2023-07-20T09:40:28;18.03;;;4.90;;
5543;SDS011;2795;47.652;13.128;2023-07-20T09:42:58;21.20;;;5.50;;
5543;SDS011;2795;47.652;13.128;2023-07-20T09:45:33;13.30;;;4.80;;
5543;SDS011;2795;47.652;13.128;2023-07-20T09:48:06;16.77;;;5.33;;
5543;SDS011;2795;47.652;13.128;2023-07-20T09:50:40;20.40;;;5.43;;
5543;SDS011;2795;47.652;13.128;2023-07-20T09:53:11;10.13;;;4.37;;
5543;SDS011;2795;47.652;13.128;2023-07-20T09:55:40;16.73;;;5.30;;
5543;SDS011;2795;47.652;13.128;2023-07-20T09:58:08;9.80;;;4.20;;
5543;SDS011;2795;47.652;13.128;2023-07-20T10:00:36;11.93;;;4.60;;
5543;SDS011;2795;47.652;13.128;2023-07-20T10:03:07;16.30;;;4.50;;
5543;SDS011;2795;47.652;13.128;2023-07-20T10:05:36;13.20;;;4.50;;
5543;SDS011;2795;47.652;13.128;2023-07-20T10:08:06;16.10;;;5.10;;
5543;SDS011;2795;47.652;13.128;2023-07-20T10:10:41;19.47;;;5.57;;
5543;SDS011;2795;47.652;13.128;2023-07-20T10:13:21;9.80;;;4.20;;
5543;SDS011;2795;47.652;13.128;2023-07-20T10:16:02;17.53;;;5.20;;
5543;SDS011;2795;47.652;13.128;2023-07-20T10:21:26;17.03;;;4.90;;
5543;SDS011;2795;47.652;13.128;2023-07-20T10:23:55;14.37;;;5.00;;
5543;SDS011;2795;47.652;13.128;2023-07-20T10:26:24;12.80;;;4.57;;
5543;SDS011;2795;47.652;13.128;2023-07-20T10:28:52;19.27;;;4.60;;
5543;SDS011;2795;47.652;13.128;2023-07-20T10:31:19;16.70;;;4.70;;
5543;SDS011;2795;47.652;13.128;2023-07-20T10:33:46;12.10;;;4.30;;
5543;SDS011;2795;47.652;13.128;2023-07-20T10:36:13;14.73;;;4.60;;
5543;SDS011;2795;47.652;13.128;2023-07-20T10:41:28;10.60;;;3.73;;
5543;SDS011;2795;47.652;13.128;2023-07-20T10:44:06;16.43;;;4.87;;
5543;SDS011;2795;47.652;13.128;2023-07-20T10:49:12;18.87;;;5.93;;
5543;SDS011;2795;47.652;13.128;2023-07-20T10:51:45;25.47;;;6.13;;
5543;SDS011;2795;47.652;13.128;2023-07-20T10:56:44;18.87;;;5.30;;
5543;SDS011;2795;47.652;13.128;2023-07-20T11:01:54;10.53;;;4.03;;
5543;SDS011;2795;47.652;13.128;2023-07-20T11:07:37;14.70;;;4.70;;
5543;SDS011;2795;47.652;13.128;2023-07-20T11:10:14;14.50;;;4.27;;
5543;SDS011;2795;47.652;13.128;2023-07-20T11:13:15;17.73;;;5.00;;
5543;SDS011;2795;47.652;13.128;2023-07-20T11:18:26;12.10;;;4.67;;
5543;SDS011;2795;47.652;13.128;2023-07-20T11:20:53;9.60;;;4.10;;
5543;SDS011;2795;47.652;13.128;2023-07-20T11:23:20;16.97;;;5.47;;
5543;SDS011;2795;47.652;13.128;2023-07-20T11:25:48;17.27;;;5.80;;
5543;SDS011;2795;47.652;13.128;2023-07-20T11:28:15;11.07;;;4.03;;
5543;SDS011;2795;47.652;13.128;2023-07-20T11:30:42;11.90;;;4.50;;
5543;SDS011;2795;47.652;13.128;2023-07-20T11:33:09;13.77;;;4.90;;
5543;SDS011;2795;47.652;13.128;2023-07-20T11:35:45;13.17;;;4.93;;
5543;SDS011;2795;47.652;13.128;2023-07-20T11:38:13;15.33;;;4.20;;
5543;SDS011;2795;47.652;13.128;2023-07-20T11:40:46;13.00;;;4.80;;
5543;SDS011;2795;47.652;13.128;2023-07-20T11:43:13;17.37;;;4.70;;
5543;SDS011;2795;47.652;13.128;2023-07-20T11:45:43;18.93;;;4.80;;
5543;SDS011;2795;47.652;13.128;2023-07-20T11:48:17;11.87;;;5.10;;
5543;SDS011;2795;47.652;13.128;2023-07-20T11:50:44;17.77;;;5.50;;
5543;SDS011;2795;47.652;13.128;2023-07-20T11:53:11;17.77;;;5.40;;
5543;SDS011;2795;47.652;13.128;2023-07-20T11:55:39;22.73;;;5.97;;
5543;SDS011;2795;47.652;13.128;2023-07-20T11:58:07;25.20;;;5.93;;
5543;SDS011;2795;47.652;13.128;2023-07-20T12:00:37;18.00;;;5.47;;
5543;SDS011;2795;47.652;13.128;2023-07-20T12:03:05;16.97;;;5.13;;
5543;SDS011;2795;47.652;13.128;2023-07-20T12:05:37;21.83;;;5.40;;
5543;SDS011;2795;47.652;13.128;2023-07-20T12:08:24;18.03;;;5.37;;
5543;SDS011;2795;47.652;13.128;2023-07-20T12:10:51;15.63;;;4.93;;
5543;SDS011;2795;47.652;13.128;2023-07-20T12:13:18;16.40;;;5.03;;
5543;SDS011;2795;47.652;13.128;2023-07-20T12:15:45;17.17;;;5.30;;
5543;SDS011;2795;47.652;13.128;2023-07-20T12:18:11;15.60;;;4.50;;
5543;SDS011;2795;47.652;13.128;2023-07-20T12:20:38;10.93;;;4.50;;
5543;SDS011;2795;47.652;13.128;2023-07-20T12:23:10;10.13;;;4.03;;
5543;SDS011;2795;47.652;13.128;2023-07-20T12:25:41;19.27;;;5.67;;
5543;SDS011;2795;47.652;13.128;2023-07-20T12:28:12;12.70;;;4.60;;
5543;SDS011;2795;47.652;13.128;2023-07-20T12:30:41;17.17;;;6.37;;
5543;SDS011;2795;47.652;13.128;2023-07-20T12:33:08;13.93;;;5.03;;
5543;SDS011;2795;47.652;13.128;2023-07-20T12:35:35;11.80;;;4.80;;
5543;SDS011;2795;47.652;13.128;2023-07-20T12:38:02;8.73;;;4.33;;
5543;SDS011;2795;47.652;13.128;2023-07-20T12:40:29;14.90;;;5.00;;
5543;SDS011;2795;47.652;13.128;2023-07-20T12:42:56;12.77;;;5.00;;
5543;SDS011;2795;47.652;13.128;2023-07-20T12:45:23;14.53;;;4.80;;
5543;SDS011;2795;47.652;13.128;2023-07-20T12:47:50;12.63;;;4.67;;
5543;SDS011;2795;47.652;13.128;2023-07-20T12:50:17;12.10;;;4.97;;
5543;SDS011;2795;47.652;13.128;2023-07-20T12:52:44;19.07;;;5.33;;
5543;SDS011;2795;47.652;13.128;2023-07-20T12:55:10;13.53;;;5.03;;
5543;SDS011;2795;47.652;13.128;2023-07-20T12:57:37;8.30;;;4.03;;
5543;SDS011;2795;47.652;13.128;2023-07-20T13:00:05;13.93;;;4.90;;
5543;SDS011;2795;47.652;13.128;2023-07-20T13:02:34;14.63;;;4.80;;
5543;SDS011;2795;47.652;13.128;2023-07-20T13:05:02;21.00;;;5.83;;
5543;SDS011;2795;47.652;13.128;2023-07-20T13:07:36;15.67;;;5.53;;
5543;SDS011;2795;47.652;13.128;2023-07-20T13:10:07;13.27;;;4.90;;
5543;SDS011;2795;47.652;13.128;2023-07-20T13:12:35;10.20;;;4.53;;
5543;SDS011;2795;47.652;13.128;2023-07-20T13:15:03;16.93;;;5.07;;
5543;SDS011;2795;47.652;13.128;2023-07-20T13:17:34;18.03;;;4.03;;
5543;SDS011;2795;47.652;13.128;2023-07-20T13:20:02;12.83;;;4.90;;
5543;SDS011;2795;47.652;13.128;2023-07-20T13:22:30;13.70;;;4.67;;
5543;SDS011;2795;47.652;13.128;2023-07-20T13:24:57;18.87;;;4.57;;
5543;SDS011;2795;47.652;13.128;2023-07-20T13:27:24;11.80;;;4.60;;
5543;SDS011;2795;47.652;13.128;2023-07-20T13:29:54;15.27;;;4.57;;
5543;SDS011;2795;47.652;13.128;2023-07-20T13:32:23;10.83;;;4.30;;
5543;SDS011;2795;47.652;13.128;2023-07-20T13:34:50;8.33;;;4.07;;
5543;SDS011;2795;47.652;13.128;2023-07-20T13:37:17;13.93;;;4.57;;
5543;SDS011;2795;47.652;13.128;2023-07-20T13:39:44;12.03;;;4.90;;
5543;SDS011;2795;47.652;13.128;2023-07-20T13:42:11;9.87;;;4.30;;
5543;SDS011;2795;47.652;13.128;2023-07-20T13:44:39;17.57;;;5.27;;
5543;SDS011;2795;47.652;13.128;2023-07-20T13:47:05;15.77;;;4.70;;
5543;SDS011;2795;47.652;13.128;2023-07-20T13:49:35;19.33;;;5.60;;
5543;SDS011;2795;47.652;13.128;2023-07-20T13:52:11;13.33;;;4.60;;
5543;SDS011;2795;47.652;13.128;2023-07-20T13:54:41;14.23;;;4.77;;
5543;SDS011;2795;47.652;13.128;2023-07-20T13:57:13;10.73;;;4.03;;
5543;SDS011;2795;47.652;13.128;2023-07-20T13:59:42;10.50;;;4.40;;
5543;SDS011;2795;47.652;13.128;2023-07-20T14:02:09;14.33;;;4.70;;
5543;SDS011;2795;47.652;13.128;2023-07-20T14:04:39;15.83;;;5.00;;
5543;SDS011;2795;47.652;13.128;2023-07-20T14:07:06;15.07;;;4.80;;
5543;SDS011;2795;47.652;13.128;2023-07-20T14:09:33;13.53;;;4.53;;
5543;SDS011;2795;47.652;13.128;2023-07-20T14:12:00;12.13;;;4.80;;
5543;SDS011;2795;47.652;13.128;2023-07-20T14:14:30;9.77;;;4.00;;
5543;SDS011;2795;47.652;13.128;2023-07-20T14:16:57;11.33;;;3.80;;
5543;SDS011;2795;47.652;13.128;2023-07-20T14:19:23;8.93;;;4.00;;
5543;SDS011;2795;47.652;13.128;2023-07-20T14:21:50;12.13;;;4.53;;
5543;SDS011;2795;47.652;13.128;2023-07-20T14:24:17;18.20;;;4.63;;
5543;SDS011;2795;47.652;13.128;2023-07-20T14:26:45;15.20;;;4.93;;
5543;SDS011;2795;47.652;13.128;2023-07-20T14:29:13;20.30;;;5.23;;
5543;SDS011;2795;47.652;13.128;2023-07-20T14:31:42;17.80;;;4.60;;
5543;SDS011;2795;47.652;13.128;2023-07-20T14:34:09;22.13;;;6.00;;
5543;SDS011;2795;47.652;13.128;2023-07-20T14:36:35;15.20;;;4.90;;
5543;SDS011;2795;47.652;13.128;2023-07-20T14:39:02;17.77;;;4.60;;
5543;SDS011;2795;47.652;13.128;2023-07-20T14:41:29;14.43;;;4.70;;
5543;SDS011;2795;47.652;13.128;2023-07-20T14:43:55;16.23;;;4.87;;
5543;SDS011;2795;47.652;13.128;2023-07-20T14:46:23;12.77;;;4.40;;
5543;SDS011;2795;47.652;13.128;2023-07-20T14:48:51;11.03;;;4.20;;
5543;SDS011;2795;47.652;13.128;2023-07-20T14:51:18;14.50;;;5.00;;
5543;SDS011;2795;47.652;13.128;2023-07-20T14:53:45;11.20;;;4.40;;
5543;SDS011;2795;47.652;13.128;2023-07-20T14:56:11;10.70;;;4.17;;
5543;SDS011;2795;47.652;13.128;2023-07-20T14:58:38;16.90;;;5.10;;
5543;SDS011;2795;47.652;13.128;2023-07-20T15:01:05;12.40;;;4.53;;
5543;SDS011;2795;47.652;13.128;2023-07-20T15:03:31;9.33;;;3.83;;
5543;SDS011;2795;47.652;13.128;2023-07-20T15:05:58;14.67;;;4.57;;
5543;SDS011;2795;47.652;13.128;2023-07-20T15:08:25;13.63;;;4.60;;
5543;SDS011;2795;47.652;13.128;2023-07-20T15:10:52;10.33;;;3.90;;
5543;SDS011;2795;47.652;13.128;2023-07-20T15:13:18;15.97;;;5.20;;
5543;SDS011;2795;47.652;13.128;2023-07-20T15:15:45;19.90;;;5.33;;
5543;SDS011;2795;47.652;13.128;2023-07-20T15:18:12;11.57;;;3.90;;
5543;SDS011;2795;47.652;13.128;2023-07-20T15:20:39;13.13;;;4.80;;
5543;SDS011;2795;47.652;13.128;2023-07-20T15:23:05;19.30;;;5.40;;